Time;durP1;ratioP1;P1;durP2;ratioP2;P2;SDS_P1;SDS_P2;PMS_P1;PMS_P2;Temp;Humidity;BMP_temperature;BMP_pressure;BME280_temperature;BME280_humidity;BME280_pressure;Samples;Min_cycle;Max_cycle;Signal;HPM_P1;HPM_P2
2023/01/31 00:03:24;;;;;;;28.55;12.02;;;;;;;4.00;100.00;100676.50;12158542;19;21496;-80
2023/01/31 00:07:26;;;;;;;34.00;13.10;;;;;;;4.07;100.00;100689.19;12210048;19;20010;-79
2023/01/31 00:11:29;;;;;;;23.40;9.93;;;;;;;4.16;100.00;100689.09;12216926;19;20007;-80
2023/01/31 00:15:31;;;;;;;19.33;7.30;;;;;;;4.25;100.00;100677.94;12172198;19;20006;-80
2023/01/31 00:19:32;;;;;;;13.95;5.75;;;;;;;4.32;100.00;100672.56;12190415;19;20035;-80
2023/01/31 00:23:34;;;;;;;11.40;4.70;;;;;;;4.34;100.00;100668.63;12176921;19;20006;-79
2023/01/31 00:27:36;;;;;;;11.13;4.72;;;;;;;4.41;100.00;100679.63;12214937;19;20387;-79
2023/01/31 00:31:39;;;;;;;15.48;4.55;;;;;;;4.49;100.00;100678.66;12212346;19;20051;-79
2023/01/31 00:35:40;;;;;;;8.67;4.20;;;;;;;4.50;100.00;100667.56;12161443;19;20014;-79
2023/01/31 00:39:45;;;;;;;10.75;5.00;;;;;;;4.54;100.00;100673.50;12181347;19;20335;-80
2023/01/31 00:43:47;;;;;;;9.43;4.55;;;;;;;4.50;100.00;100664.00;12179124;19;20002;-79
2023/01/31 00:47:48;;;;;;;10.82;5.25;;;;;;;4.50;100.00;100672.19;12161179;19;20062;-79
2023/01/31 00:51:50;;;;;;;15.43;6.25;;;;;;;4.53;100.00;100674.53;12177721;19;20529;-79
2023/01/31 00:55:59;;;;;;;20.30;8.13;;;;;;;4.49;100.00;100673.19;12180391;19;20047;-80
2023/01/31 01:00:01;;;;;;;26.70;6.75;;;;;;;4.47;100.00;100667.94;12158941;19;20011;-79
2023/01/31 01:04:05;;;;;;;17.30;7.18;;;;;;;4.42;100.00;100672.28;12175999;19;20017;-80
2023/01/31 01:08:07;;;;;;;17.67;6.60;;;;;;;4.30;100.00;100674.63;12193008;19;20480;-80
2023/01/31 01:12:09;;;;;;;13.90;6.00;;;;;;;4.26;100.00;100671.44;12172880;19;20429;-82
2023/01/31 01:16:14;;;;;;;11.40;4.50;;;;;;;4.26;100.00;100686.97;12192152;19;20007;-80
2023/01/31 01:20:17;;;;;;;10.45;5.45;;;;;;;4.23;100.00;100682.72;12194920;19;20345;-79
2023/01/31 01:24:18;;;;;;;18.45;5.53;;;;;;;4.25;100.00;100687.97;12171344;19;20943;-79
2023/01/31 01:28:20;;;;;;;20.63;5.47;;;;;;;4.23;100.00;100687.34;12197882;19;20363;-80
2023/01/31 01:32:22;;;;;;;13.48;6.05;;;;;;;4.16;100.00;100694.56;12193494;19;20804;-83
2023/01/31 01:36:26;;;;;;;22.05;6.53;;;;;;;4.13;100.00;100703.94;12173320;19;20046;-80
2023/01/31 01:40:37;;;;;;;15.45;6.10;;;;;;;4.15;100.00;100707.34;12192984;19;20011;-80
2023/01/31 01:44:52;;;;;;;16.73;6.55;;;;;;;4.10;100.00;100701.59;12172077;19;20010;-80
2023/01/31 01:49:11;;;;;;;17.90;5.95;;;;;;;4.02;100.00;100701.69;12193860;19;20043;-80
2023/01/31 01:53:21;;;;;;;13.68;5.88;;;;;;;3.95;100.00;100695.28;12183112;19;20106;-79
2023/01/31 01:57:31;;;;;;;15.45;4.95;;;;;;;3.80;100.00;100696.09;12168629;19;20009;-79
2023/01/31 02:01:35;;;;;;;11.85;4.93;;;;;;;3.68;100.00;100704.88;12188051;19;20038;-80
2023/01/31 02:05:51;;;;;;;13.52;5.18;;;;;;;3.57;100.00;100709.75;12164106;19;20006;-80
2023/01/31 02:10:01;;;;;;;18.83;5.47;;;;;;;3.41;100.00;100707.97;12191233;19;21017;-80
2023/01/31 02:14:09;;;;;;;16.85;5.53;;;;;;;3.41;100.00;100704.41;12188527;19;20855;-79
2023/01/31 02:18:11;;;;;;;21.15;5.78;;;;;;;3.50;100.00;100703.31;12169422;19;20089;-80
2023/01/31 02:22:27;;;;;;;22.15;6.85;;;;;;;3.56;100.00;100710.75;12194588;19;20046;-79
2023/01/31 02:27:14;;;;;;;16.23;6.63;;;;;;;3.67;100.00;100719.56;12230758;19;20038;-79
2023/01/31 02:31:42;;;;;;;18.52;7.35;;;;;;;3.69;100.00;100707.44;12131603;19;2004397;-80
2023/01/31 02:35:44;;;;;;;21.70;6.78;;;;;;;3.71;100.00;100709.97;12191988;19;20483;-82
2023/01/31 02:40:13;;;;;;;16.98;6.25;;;;;;;3.73;100.00;100708.75;12208768;19;20134;-80
2023/01/31 02:44:58;;;;;;;13.10;5.00;;;;;;;3.78;100.00;100700.06;12207279;19;20738;-79
2023/01/31 02:49:33;;;;;;;12.25;4.85;;;;;;;3.77;100.00;100703.78;12184300;19;20030;-80
2023/01/31 02:53:49;;;;;;;13.52;5.30;;;;;;;3.76;100.00;100702.09;12178214;19;20018;-79
2023/01/31 02:57:55;;;;;;;13.25;5.00;;;;;;;3.71;100.00;100699.06;12207378;19;20002;-80
2023/01/31 03:02:01;;;;;;;18.02;5.75;;;;;;;3.71;100.00;100702.63;12203832;19;20007;-80
2023/01/31 03:06:25;;;;;;;17.23;5.63;;;;;;;3.68;100.00;100705.72;12185864;19;20010;-80
2023/01/31 03:10:41;;;;;;;16.55;5.95;;;;;;;3.65;100.00;100709.66;12205920;19;20069;-79
2023/01/31 03:15:03;;;;;;;16.30;5.38;;;;;;;3.57;100.00;100709.75;12184822;19;20006;-80
2023/01/31 03:19:14;;;;;;;17.98;5.82;;;;;;;3.42;100.00;100708.81;12206802;19;20010;-80
2023/01/31 03:23:20;;;;;;;16.02;5.25;;;;;;;3.23;100.00;100712.03;12204630;19;20014;-79
2023/01/31 03:27:22;;;;;;;16.60;6.50;;;;;;;3.05;100.00;100721.31;12186797;19;20018;-80
2023/01/31 03:31:36;;;;;;;14.18;4.63;;;;;;;2.92;100.00;100740.13;12208960;19;20382;-79
2023/01/31 03:35:45;;;;;;;16.05;5.50;;;;;;;2.84;100.00;100740.16;12184353;19;20030;-79
2023/01/31 03:39:55;;;;;;;13.27;4.82;;;;;;;2.80;100.00;100738.81;12201242;19;20085;-79
2023/01/31 03:44:00;;;;;;;12.45;4.47;;;;;;;2.74;100.00;100754.81;12201077;19;20015;-80
2023/01/31 03:48:08;;;;;;;14.82;5.40;;;;;;;2.72;100.00;100737.81;12182397;19;20002;-79
2023/01/31 03:52:17;;;;;;;12.13;4.90;;;;;;;2.73;100.00;100754.97;12201978;19;20011;-79
2023/01/31 03:56:38;;;;;;;16.63;5.28;;;;;;;2.76;100.00;100751.91;12201060;19;20006;-80
2023/01/31 04:00:42;;;;;;;11.95;4.55;;;;;;;2.80;100.00;100747.84;12180001;19;20010;-79
2023/01/31 04:04:51;;;;;;;13.10;4.43;;;;;;;2.82;100.00;100756.66;12199333;19;20078;-80
2023/01/31 04:08:53;;;;;;;17.20;4.90;;;;;;;2.78;100.00;100747.16;12183277;19;20029;-80
2023/01/31 04:12:55;;;;;;;12.45;4.65;;;;;;;2.83;100.00;100755.66;12203864;19;20007;-82
2023/01/31 04:16:56;;;;;;;18.65;6.38;;;;;;;2.84;100.00;100756.47;12246908;19;20002;-81
2023/01/31 04:20:58;;;;;;;15.15;4.63;;;;;;;2.77;100.00;100763.63;12192914;19;20074;-79
2023/01/31 04:25:00;;;;;;;15.38;4.70;;;;;;;2.67;100.00;100751.09;12200214;19;20080;-79
2023/01/31 04:29:02;;;;;;;16.73;5.00;;;;;;;2.53;100.00;100754.56;12204133;19;20014;-80
2023/01/31 04:33:04;;;;;;;12.13;4.82;;;;;;;2.38;100.00;100750.81;12181166;19;20010;-80
2023/01/31 04:37:05;;;;;;;16.85;5.68;;;;;;;2.25;100.00;100741.34;12202955;19;20501;-80
2023/01/31 04:41:07;;;;;;;15.43;5.22;;;;;;;2.15;100.00;100737.97;12210660;19;20345;-80
2023/01/31 04:45:09;;;;;;;19.67;4.72;;;;;;;2.10;100.00;100743.06;12221809;19;20038;-80
2023/01/31 04:49:11;;;;;;;17.80;4.53;;;;;;;2.22;100.00;100736.25;12254990;19;20322;-79
2023/01/31 04:53:14;;;;;;;15.43;4.30;;;;;;;2.34;100.00;100742.19;12257148;19;20267;-79
2023/01/31 04:57:15;;;;;;;10.80;4.10;;;;;;;2.38;100.00;100721.78;12240229;19;20032;-80
2023/01/31 05:01:17;;;;;;;11.85;4.07;;;;;;;2.33;100.00;100720.59;12216185;19;20012;-80
2023/01/31 05:05:19;;;;;;;14.93;4.22;;;;;;;2.24;100.00;100707.03;12217033;19;20027;-80
2023/01/31 05:09:21;;;;;;;14.20;4.10;;;;;;;2.13;100.00;100714.69;12194322;19;20017;-80
2023/01/31 05:13:24;;;;;;;14.63;4.75;;;;;;;2.05;100.00;100719.13;12214936;19;20011;-80
2023/01/31 05:17:28;;;;;;;17.20;4.38;;;;;;;1.98;100.00;100706.38;12213696;19;20007;-80
2023/01/31 05:21:53;;;;;;;16.52;4.50;;;;;;;1.91;100.00;100705.41;12190966;19;20035;-80
2023/01/31 05:25:51;;;;;;;17.48;5.18;;;;;;;1.83;100.00;100698.94;12213769;19;20014;-80
2023/01/31 05:29:53;;;;;;;13.23;4.45;;;;;;;1.91;100.00;100716.25;12189666;19;20081;-80
2023/01/31 05:33:55;;;;;;;13.02;4.40;;;;;;;2.00;100.00;100713.34;12211268;19;20078;-79
2023/01/31 05:37:57;;;;;;;12.80;4.50;;;;;;;2.11;100.00;100705.84;12213984;19;20006;-81
2023/01/31 05:41:59;;;;;;;14.25;4.60;;;;;;;2.16;100.00;100704.31;12190861;19;20750;-81
2023/01/31 05:46:00;;;;;;;11.10;4.07;;;;;;;2.13;100.00;100704.66;12208400;19;20027;-80
2023/01/31 05:50:03;;;;;;;16.07;5.53;;;;;;;2.02;100.00;100694.13;12212479;19;20378;-79
2023/01/31 05:54:05;;;;;;;15.18;4.30;;;;;;;1.91;100.00;100702.69;12189752;19;20015;-80
2023/01/31 05:58:07;;;;;;;10.43;3.95;;;;;;;1.82;100.00;100701.84;12211652;19;20034;-79
2023/01/31 06:02:10;;;;;;;13.80;4.80;;;;;;;1.75;100.00;100701.63;12209506;19;20023;-83
2023/01/31 06:06:12;;;;;;;13.32;4.57;;;;;;;1.73;100.00;100711.84;12189127;19;20026;-79
2023/01/31 06:10:14;;;;;;;14.80;4.67;;;;;;;1.76;100.00;100703.38;12208759;19;20098;-79
2023/01/31 06:14:16;;;;;;;21.23;5.40;;;;;;;1.90;100.00;100698.25;12210442;19;20124;-79
2023/01/31 06:18:17;;;;;;;11.45;4.78;;;;;;;2.04;100.00;100702.97;12186639;19;20024;-79
2023/01/31 06:22:19;;;;;;;17.67;5.13;;;;;;;2.13;100.00;100693.78;12205586;19;21141;-79
2023/01/31 06:26:21;;;;;;;22.55;6.00;;;;;;;2.18;100.00;100694.13;12208701;19;20469;-79
2023/01/31 06:30:23;;;;;;;18.73;5.63;;;;;;;2.23;100.00;100701.75;12183504;19;20007;-80
2023/01/31 06:34:26;;;;;;;12.00;5.30;;;;;;;2.34;100.00;100695.09;12205138;19;20014;-80
2023/01/31 06:38:28;;;;;;;15.02;5.72;;;;;;;2.39;100.00;100685.38;12206382;19;20011;-80
2023/01/31 06:42:29;;;;;;;16.88;5.05;;;;;;;2.50;100.00;100686.91;12185808;19;20007;-79
2023/01/31 06:46:32;;;;;;;18.60;5.57;;;;;;;2.61;100.00;100685.63;12204796;19;20014;-79
2023/01/31 06:50:34;;;;;;;17.00;5.63;;;;;;;2.69;100.00;100678.28;12189691;19;20291;-80
2023/01/31 06:54:35;;;;;;;17.23;6.18;;;;;;;2.79;100.00;100691.69;12205517;19;20354;-80
2023/01/31 06:58:37;;;;;;;16.55;6.43;;;;;;;2.86;100.00;100705.44;12206009;19;20043;-80
2023/01/31 07:02:38;;;;;;;18.02;5.88;;;;;;;2.93;100.00;100709.97;12184329;19;20055;-79
2023/01/31 07:06:42;;;;;;;18.83;6.40;;;;;;;2.99;100.00;100710.31;12230921;19;20011;-81
2023/01/31 07:10:44;;;;;;;13.90;5.43;;;;;;;2.95;100.00;100712.53;12238182;19;20021;-81
2023/01/31 07:14:45;;;;;;;17.85;6.93;;;;;;;2.99;100.00;100716.59;12186956;19;20497;-80
2023/01/31 07:18:47;;;;;;;20.90;7.68;;;;;;;2.99;100.00;100727.47;12208168;19;20353;-80
2023/01/31 07:22:58;;;;;;;18.80;6.40;;;;;;;2.97;100.00;100730.41;12205554;19;20031;-81
2023/01/31 07:27:00;;;;;;;19.38;6.25;;;;;;;2.92;100.00;100731.97;12186657;19;20115;-80
2023/01/31 07:31:11;;;;;;;20.25;7.32;;;;;;;2.80;100.00;100730.66;12193510;19;20018;-82
2023/01/31 07:35:13;;;;;;;20.73;7.65;;;;;;;2.66;100.00;100743.97;12199859;19;20046;-81
2023/01/31 07:39:18;;;;;;;23.10;8.18;;;;;;;2.66;100.00;100743.97;12194467;19;20006;-80
2023/01/31 07:43:19;;;;;;;24.65;7.32;;;;;;;2.66;100.00;100733.06;12191969;19;20464;-80
2023/01/31 07:47:21;;;;;;;24.35;8.80;;;;;;;2.82;100.00;100748.47;12214907;19;20003;-80
2023/01/31 07:51:23;;;;;;;21.80;8.35;;;;;;;2.73;100.00;100747.66;12191223;19;20006;-81
2023/01/31 07:55:25;;;;;;;22.25;8.65;;;;;;;2.72;100.00;100750.56;12215068;19;21248;-82
2023/01/31 07:59:26;;;;;;;24.73;8.82;;;;;;;2.68;100.00;100769.13;12216412;19;19999;-79
2023/01/31 08:03:32;;;;;;;24.48;9.57;;;;;;;2.82;100.00;100770.25;12188863;19;20010;-80
2023/01/31 08:07:34;;;;;;;26.77;10.05;;;;;;;2.92;100.00;100770.06;12211381;19;20014;-80
2023/01/31 08:11:36;;;;;;;22.48;10.35;;;;;;;2.97;100.00;100768.53;12193916;19;20461;-80
2023/01/31 08:15:38;;;;;;;14.02;6.68;;;;;;;3.07;100.00;100768.28;12220373;19;20571;-83
2023/01/31 08:19:39;;;;;;;23.00;9.40;;;;;;;3.02;100.00;100770.69;12221554;19;19998;-80
2023/01/31 08:23:42;;;;;;;21.38;8.32;;;;;;;3.00;100.00;100772.72;12200285;19;20010;-80
2023/01/31 08:27:44;;;;;;;23.80;8.63;;;;;;;3.02;100.00;100759.81;12223648;19;20017;-81
2023/01/31 08:31:45;;;;;;;21.75;8.75;;;;;;;3.01;100.00;100763.56;12215192;19;20011;-80
2023/01/31 08:35:47;;;;;;;20.17;8.00;;;;;;;3.12;100.00;100770.47;12193513;19;20010;-79
2023/01/31 08:39:49;;;;;;;25.20;8.35;;;;;;;3.10;100.00;100772.53;12217092;19;20086;-81
2023/01/31 08:43:51;;;;;;;17.67;7.95;;;;;;;3.21;100.00;100755.78;12210518;19;20067;-81
2023/01/31 08:47:59;;;;;;;20.30;7.50;;;;;;;3.29;100.00;100763.91;12190901;19;20042;-79
2023/01/31 08:52:00;;;;;;;15.77;7.03;;;;;;;3.33;100.00;100768.00;12209712;19;20043;-81
2023/01/31 08:56:04;;;;;;;25.98;7.85;;;;;;;3.47;100.00;100763.63;12210928;19;20417;-80
2023/01/31 09:00:09;;;;;;;25.23;7.70;;;;;;;3.49;100.00;100766.19;12192110;19;20549;-79
2023/01/31 09:04:12;;;;;;;22.75;7.95;;;;;;;3.45;100.00;100773.88;12243189;19;20041;-81
2023/01/31 09:08:14;;;;;;;20.98;7.30;;;;;;;3.42;100.00;100766.03;12243100;19;20007;-82
2023/01/31 09:12:15;;;;;;;18.58;8.38;;;;;;;3.46;100.00;100772.00;12198150;19;20011;-80
2023/01/31 09:16:18;;;;;;;15.02;7.00;;;;;;;3.55;100.00;100760.84;12214482;19;20010;-79
2023/01/31 09:20:20;;;;;;;18.75;7.15;;;;;;;3.76;100.00;100740.28;12212608;19;20011;-79
2023/01/31 09:24:22;;;;;;;15.63;6.90;;;;;;;3.88;100.00;100736.06;12187791;19;20011;-78
2023/01/31 09:28:24;;;;;;;21.45;7.25;;;;;;;3.90;100.00;100742.19;12214715;19;20007;-79
2023/01/31 09:32:26;;;;;;;17.70;7.00;;;;;;;3.87;100.00;100739.84;12213803;19;20006;-79
2023/01/31 09:36:28;;;;;;;17.75;8.38;;;;;;;3.99;100.00;100737.53;12191557;19;20102;-78
2023/01/31 09:40:32;;;;;;;17.60;6.38;;;;;;;4.04;100.00;100745.97;12212579;19;20002;-79
2023/01/31 09:44:41;;;;;;;15.02;6.03;;;;;;;3.98;100.00;100750.28;12193935;19;20012;-80
2023/01/31 09:48:47;;;;;;;19.95;6.82;;;;;;;4.01;100.00;100752.66;12214915;19;20409;-77
2023/01/31 09:52:49;;;;;;;14.10;6.28;;;;;;;4.19;100.00;100757.78;12211183;19;20038;-79
2023/01/31 09:57:16;;;;;;;13.97;6.13;;;;;;;4.21;100.00;100758.44;12185112;19;20122;-79
2023/01/31 10:01:27;;;;;;;16.27;5.97;;;;;;;4.39;100.00;100762.72;12206131;19;20015;-80
2023/01/31 10:05:33;;;;;;;14.57;4.80;;;;;;;4.39;100.00;100749.91;12209773;19;20090;-80
2023/01/31 10:09:41;;;;;;;18.67;6.28;;;;;;;4.32;100.00;100744.34;12186420;19;20006;-81
2023/01/31 10:13:50;;;;;;;13.82;6.03;;;;;;;4.55;100.00;100730.63;12215328;19;20035;-80
2023/01/31 10:18:00;;;;;;;20.90;6.97;;;;;;;4.67;100.00;100719.22;12234757;19;20036;-83
2023/01/31 10:22:10;;;;;;;14.65;6.03;;;;;;;4.75;100.00;100714.50;12251580;19;19998;-81
2023/01/31 10:26:19;;;;;;;22.35;6.57;;;;;;;4.80;100.00;100722.16;12211278;19;20020;-81
2023/01/31 10:30:27;;;;;;;18.88;6.63;;;;;;;4.85;100.00;100724.28;12188183;19;20066;-82
2023/01/31 10:34:37;;;;;;;22.00;6.20;;;;;;;4.80;100.00;100728.44;12213464;19;20014;-79
2023/01/31 10:38:54;;;;;;;20.65;6.68;;;;;;;4.71;100.00;100717.81;12197498;19;20009;-83
2023/01/31 10:43:16;;;;;;;22.67;7.30;;;;;;;4.74;100.00;100717.44;12215034;19;20006;-82
2023/01/31 10:47:20;;;;;;;15.97;6.47;;;;;;;4.80;100.00;100708.50;12215068;19;20010;-81
2023/01/31 10:52:12;;;;;;;20.05;7.75;;;;;;;4.99;100.00;100713.34;12187724;19;20464;-83
2023/01/31 10:56:22;;;;;;;20.70;7.65;;;;;;;5.30;100.00;100722.34;12225230;19;20285;-80
2023/01/31 11:00:30;;;;;;;20.73;7.45;;;;;;;5.20;100.00;100689.84;12199331;19;20006;-82
2023/01/31 11:04:41;;;;;;;18.08;6.97;;;;;;;5.41;100.00;100657.09;12214305;19;20006;-80
2023/01/31 11:08:55;;;;;;;19.48;6.72;;;;;;;5.62;100.00;100639.81;12192492;19;20018;-85
2023/01/31 11:13:03;;;;;;;22.88;6.95;;;;;;;5.93;100.00;100635.88;12210189;19;20031;-81
2023/01/31 11:17:17;;;;;;;22.52;7.15;;;;;;;6.24;100.00;100638.16;12210323;19;20835;-83
2023/01/31 11:21:23;;;;;;;16.40;7.50;;;;;;;6.38;100.00;100623.53;12185865;19;20010;-82
2023/01/31 11:25:27;;;;;;;19.85;6.00;;;;;;;6.16;98.92;100624.66;12212288;19;20363;-81
2023/01/31 11:29:38;;;;;;;19.23;6.45;;;;;;;6.10;99.07;100609.06;12213107;19;20043;-80
2023/01/31 11:33:44;;;;;;;20.10;7.30;;;;;;;6.07;98.73;100604.00;12189119;19;20034;-81
2023/01/31 11:37:52;;;;;;;20.27;6.57;;;;;;;5.91;98.97;100599.63;12208077;19;20007;-82
2023/01/31 11:41:54;;;;;;;17.60;6.60;;;;;;;5.85;100.00;100611.38;12188715;19;20022;-82
2023/01/31 11:46:01;;;;;;;16.65;6.95;;;;;;;5.63;100.00;100591.44;12223084;19;20011;-84
2023/01/31 11:50:03;;;;;;;17.02;7.20;;;;;;;5.70;100.00;100597.78;12227161;19;19998;-82
2023/01/31 11:54:06;;;;;;;19.95;7.22;;;;;;;5.66;100.00;100591.88;12214775;19;20761;-83
2023/01/31 11:58:34;;;;;;;17.60;7.10;;;;;;;5.56;100.00;100585.94;12250620;19;20042;-82
2023/01/31 12:02:40;;;;;;;21.08;7.82;;;;;;;5.52;100.00;100583.78;12187082;19;20003;-84
2023/01/31 12:06:55;;;;;;;19.42;7.38;;;;;;;5.46;100.00;100561.63;12204480;19;20532;-82
2023/01/31 12:10:57;;;;;;;15.27;6.90;;;;;;;5.51;100.00;100562.97;12204877;19;20010;-81
2023/01/31 12:15:19;;;;;;;15.27;7.50;;;;;;;5.60;100.00;100569.97;12178118;19;20401;-84
2023/01/31 12:19:44;;;;;;;22.93;7.80;;;;;;;5.70;100.00;100549.41;12205182;19;20030;-85
2023/01/31 12:24:17;;;;;;;17.25;7.93;;;;;;;5.81;100.00;100541.72;12180257;19;20358;-81
2023/01/31 12:28:22;;;;;;;19.48;7.47;;;;;;;5.79;100.00;100522.75;12203588;19;20042;-83
2023/01/31 12:32:40;;;;;;;18.52;6.68;;;;;;;5.86;100.00;100509.09;12210903;19;20078;-83
2023/01/31 12:37:09;;;;;;;16.75;6.70;;;;;;;6.00;100.00;100523.75;12191770;19;20007;-84
2023/01/31 12:41:39;;;;;;;20.75;7.22;;;;;;;6.06;100.00;100525.66;12211759;19;20006;-84
2023/01/31 12:45:44;;;;;;;18.15;7.45;;;;;;;5.88;100.00;100507.88;12190632;19;20031;-86
2023/01/31 12:50:11;;;;;;;17.30;6.97;;;;;;;5.77;100.00;100486.56;12223011;19;20023;-85
2023/01/31 12:54:26;;;;;;;14.60;6.20;;;;;;;5.76;100.00;100482.13;12187952;19;20014;-85
2023/01/31 12:58:41;;;;;;;20.52;6.32;;;;;;;5.82;100.00;100470.38;12204954;19;20035;-83
2023/01/31 13:03:06;;;;;;;21.48;7.35;;;;;;;5.70;100.00;100480.22;12197189;19;20022;-87
2023/01/31 13:07:16;;;;;;;19.38;7.05;;;;;;;5.69;100.00;100470.31;12221693;19;20096;-84
2023/01/31 13:11:23;;;;;;;15.63;5.80;;;;;;;5.63;100.00;100465.66;12215783;19;20003;-84
2023/01/31 13:15:37;;;;;;;19.63;6.45;;;;;;;5.62;100.00;100472.16;12191180;19;20083;-84
2023/01/31 13:19:48;;;;;;;22.80;6.60;;;;;;;5.62;100.00;100459.38;12210868;19;20007;-82
2023/01/31 13:24:01;;;;;;;16.80;5.65;;;;;;;5.57;100.00;100444.59;12202803;19;20644;-87
2023/01/31 13:28:17;;;;;;;18.35;6.18;;;;;;;5.73;100.00;100436.06;12251955;19;20412;-86
2023/01/31 13:32:32;;;;;;;19.08;6.15;;;;;;;5.78;100.00;100441.75;12243500;19;20543;-83
2023/01/31 13:36:51;;;;;;;13.75;5.28;;;;;;;5.72;100.00;100442.56;12193931;19;20047;-80
2023/01/31 13:40:56;;;;;;;13.88;5.50;;;;;;;5.75;100.00;100425.75;12213304;19;20654;-83
2023/01/31 13:45:03;;;;;;;14.00;5.55;;;;;;;5.71;100.00;100416.25;12191300;19;20018;-82
2023/01/31 13:49:16;;;;;;;12.43;5.50;;;;;;;5.70;100.00;100411.84;12214376;19;20071;-83
2023/01/31 13:53:28;;;;;;;10.97;5.30;;;;;;;5.64;100.00;100418.97;12215952;19;20355;-81
2023/01/31 13:57:35;;;;;;;15.57;5.95;;;;;;;5.57;100.00;100422.72;12192056;19;20023;-82
2023/01/31 14:01:47;;;;;;;16.27;5.72;;;;;;;5.63;100.00;100436.44;12251996;19;20003;-84
2023/01/31 14:05:50;;;;;;;14.13;5.10;;;;;;;5.71;100.00;100419.88;12200317;19;20009;-84
2023/01/31 14:09:59;;;;;;;15.43;5.95;;;;;;;5.62;100.00;100437.50;12221600;19;20552;-86
2023/01/31 14:14:30;;;;;;;13.75;4.95;;;;;;;5.63;100.00;100436.44;12215892;19;20015;-82
2023/01/31 14:18:43;;;;;;;12.55;5.78;;;;;;;5.64;100.00;100440.00;12192137;19;20026;-83
2023/01/31 14:23:23;;;;;;;10.85;5.18;;;;;;;5.62;100.00;100437.50;12219941;19;20011;-83
2023/01/31 14:27:36;;;;;;;15.82;5.90;;;;;;;5.65;100.00;100438.94;12195865;19;20013;-82
2023/01/31 14:31:38;;;;;;;16.08;6.70;;;;;;;5.64;100.00;100440.00;12217370;19;20070;-83
2023/01/31 14:35:57;;;;;;;17.10;6.10;;;;;;;5.48;100.00;100436.56;12193605;19;20013;-83
2023/01/31 14:40:22;;;;;;;15.68;6.00;;;;;;;5.45;100.00;100439.69;12213822;19;20014;-82
2023/01/31 14:44:52;;;;;;;16.73;6.90;;;;;;;5.30;100.00;100432.66;12212713;19;20003;-85
2023/01/31 14:49:12;;;;;;;16.02;7.28;;;;;;;5.19;100.00;100444.97;12195205;19;20993;-85
2023/01/31 14:53:36;;;;;;;15.13;6.47;;;;;;;5.02;100.00;100437.06;12218632;19;20011;-84
2023/01/31 14:57:50;;;;;;;14.10;6.78;;;;;;;4.84;100.00;100433.16;12202236;19;20011;-82
2023/01/31 15:01:53;;;;;;;17.17;7.55;;;;;;;4.62;100.00;100425.00;12231574;19;20018;-87
2023/01/31 15:06:24;;;;;;;19.85;9.05;;;;;;;4.53;100.00;100431.63;12206373;19;20022;-90
2023/01/31 15:11:02;;;;;;;20.60;8.48;;;;;;;4.48;100.00;100440.38;12225938;19;20014;-83
2023/01/31 15:15:22;;;;;;;24.05;8.38;;;;;;;4.39;100.00;100435.25;12209652;19;20578;-85
2023/01/31 15:19:28;;;;;;;19.70;8.18;;;;;;;4.22;100.00;100440.09;12227493;19;20023;-84
2023/01/31 15:23:32;;;;;;;20.00;8.20;;;;;;;4.17;100.00;100448.03;12229794;19;20037;-82
2023/01/31 15:27:41;;;;;;;20.20;10.00;;;;;;;4.15;100.00;100440.03;12213606;19;20445;-91
2023/01/31 15:31:46;;;;;;;26.02;9.73;;;;;;;4.13;100.00;100438.53;12234592;19;20020;-83
2023/01/31 15:35:54;;;;;;;26.02;10.20;;;;;;;4.10;100.00;100446.09;12242413;19;20011;-90
2023/01/31 15:40:18;;;;;;;28.10;12.02;;;;;;;4.08;100.00;100444.59;12276972;19;20010;-91
2023/01/31 15:44:27;;;;;;;26.90;11.02;;;;;;;4.10;100.00;100445.22;12243578;19;20030;-84
2023/01/31 15:48:28;;;;;;;25.90;11.45;;;;;;;4.11;100.00;100446.94;12208972;19;20009;-83
2023/01/31 15:52:33;;;;;;;27.15;10.20;;;;;;;4.18;100.00;100445.09;12227812;19;20052;-83
2023/01/31 15:56:39;;;;;;;25.63;10.48;;;;;;;4.21;100.00;100443.88;12202450;19;20003;-85
2023/01/31 16:00:42;;;;;;;23.27;10.90;;;;;;;4.24;100.00;100448.94;12223349;19;20018;-83
2023/01/31 16:04:44;;;;;;;25.10;10.30;;;;;;;4.26;100.00;100442.25;12223382;19;20142;-84
2023/01/31 16:08:51;;;;;;;28.63;11.13;;;;;;;4.37;100.00;100437.31;12205659;19;20011;-85
2023/01/31 16:12:55;;;;;;;25.42;10.38;;;;;;;4.38;100.00;100431.69;12227964;19;20122;-84
2023/01/31 16:16:57;;;;;;;24.80;10.63;;;;;;;4.44;100.00;100425.44;12228198;19;20017;-85
2023/01/31 16:21:14;;;;;;;23.98;10.30;;;;;;;4.43;100.00;100428.34;12203544;19;20022;-82
2023/01/31 16:25:17;;;;;;;24.00;9.88;;;;;;;4.50;100.00;100430.13;12225885;19;20003;-86
2023/01/31 16:29:22;;;;;;;26.83;10.82;;;;;;;4.61;100.00;100433.34;12224711;19;20022;-84
2023/01/31 16:33:24;;;;;;;23.98;10.15;;;;;;;4.64;100.00;100433.84;12203586;19;20031;-85
2023/01/31 16:42:24;;;;;;;24.05;9.57;;;;;;;4.69;100.00;100442.25;12252669;19;20030;-92
2023/01/31 16:46:40;;;;;;;23.70;9.80;;;;;;;4.82;100.00;100449.75;12249795;19;20046;-84
2023/01/31 16:50:42;;;;;;;18.05;9.23;;;;;;;4.82;100.00;100452.47;12213930;19;20003;-86
2023/01/31 16:54:49;;;;;;;22.15;9.25;;;;;;;4.84;100.00;100455.84;12235522;19;20010;-83
2023/01/31 16:58:57;;;;;;;20.90;8.73;;;;;;;4.86;100.00;100451.03;12226990;19;20028;-85
2023/01/31 17:03:01;;;;;;;26.17;8.93;;;;;;;4.80;100.00;100455.38;12207689;19;20021;-82
2023/01/31 17:07:05;;;;;;;22.13;9.90;;;;;;;4.86;100.00;100451.03;12225457;19;20459;-85
2023/01/31 17:11:11;;;;;;;19.08;8.18;;;;;;;4.88;100.00;100445.34;12223503;19;20514;-85
2023/01/31 17:15:24;;;;;;;28.98;9.88;;;;;;;4.92;100.00;100449.41;12219212;19;20006;-85
2023/01/31 17:19:25;;;;;;;26.30;9.40;;;;;;;4.92;100.00;100444.78;12255609;19;20010;-84
2023/01/31 17:23:27;;;;;;;17.00;9.55;;;;;;;4.90;100.00;100435.94;12229846;19;20404;-84
2023/01/31 17:27:28;;;;;;;25.25;9.80;;;;;;;4.92;100.00;100424.81;12199139;19;20084;-86
2023/01/31 17:31:30;;;;;;;26.27;10.18;;;;;;;4.90;100.00;100430.47;12219068;19;20092;-85
2023/01/31 17:35:38;;;;;;;19.23;8.43;;;;;;;4.91;100.00;100437.63;12222559;19;19999;-84
2023/01/31 17:39:40;;;;;;;24.85;10.27;;;;;;;4.95;100.00;100435.34;12209926;19;19999;-85
2023/01/31 17:43:42;;;;;;;21.63;9.98;;;;;;;4.98;100.00;100441.25;12225911;19;20041;-85
2023/01/31 17:47:45;;;;;;;25.50;10.98;;;;;;;4.97;100.00;100455.97;12197846;19;20114;-83
2023/01/31 17:51:47;;;;;;;26.98;11.25;;;;;;;4.99;100.00;100464.78;12218480;19;20007;-83
2023/01/31 17:55:48;;;;;;;19.45;10.07;;;;;;;5.01;100.00;100470.91;12220292;19;20010;-86
2023/01/31 17:59:51;;;;;;;22.58;9.43;;;;;;;5.01;100.00;100470.91;12196596;19;20014;-85
2023/01/31 18:03:52;;;;;;;18.80;8.32;;;;;;;4.96;100.00;100459.72;12212070;19;20480;-84
2023/01/31 18:07:54;;;;;;;21.42;8.02;;;;;;;4.98;100.00;100467.72;12221692;19;20009;-84
2023/01/31 18:11:56;;;;;;;14.82;7.78;;;;;;;5.02;100.00;100467.13;12192849;19;20090;-84
2023/01/31 18:16:06;;;;;;;13.38;6.95;;;;;;;5.06;100.00;100461.25;12223957;19;20011;-84
2023/01/31 18:20:10;;;;;;;17.65;8.10;;;;;;;5.08;100.00;100451.81;12219181;19;20011;-85
2023/01/31 18:24:17;;;;;;;14.52;7.55;;;;;;;5.09;100.00;100442.59;12199914;19;20107;-84
2023/01/31 18:28:19;;;;;;;17.33;7.53;;;;;;;5.07;100.00;100432.91;12216792;19;20074;-84
2023/01/31 18:32:20;;;;;;;14.15;7.45;;;;;;;5.13;100.00;100435.69;12212722;19;20643;-84
2023/01/31 18:36:22;;;;;;;19.33;7.72;;;;;;;5.12;100.00;100422.25;12193119;19;20026;-84
2023/01/31 18:40:24;;;;;;;17.95;7.10;;;;;;;5.12;100.00;100427.72;12211493;19;20006;-83
2023/01/31 18:44:28;;;;;;;15.15;7.40;;;;;;;5.13;100.00;100427.50;12213209;19;21635;-83
2023/01/31 18:48:37;;;;;;;18.63;8.57;;;;;;;5.14;100.00;100439.25;12189376;19;20052;-84
2023/01/31 18:52:42;;;;;;;15.93;7.45;;;;;;;5.15;100.00;100433.63;12202489;19;20005;-83